Ayr, United Kingdom
Current Conditions -  °F | °C
As of 10:20 AM on Thursday 18 Dec 2014 (Local Time) from EGPK Reporting Station
Light Rain Light Rain  
Wind Chill: 54°   Ceiling: 2200
Heat Index: 54°   Visibility: 4mi
Dew Point: 52°   Wind: 22mph
Humidity: 94%   Direction: 220°SW
Pressure: 29.35"   Gusts: NA
Location:  55.46°N, 4.63°W
Report Text: EGPK 181020Z 22019KT 7000 -RA SCT009 BKN022 12/11 Q0994
Loading
Personal Weather Stations






























Interactive Weather Map New forecast layout! Learn more

10-Day Weather Forecast

Advertisements
Track Severe Weather on mobile